createdAt,value
2016-12-14T00:00:17.684Z,3.9
2016-12-14T00:00:36.312Z,3.9
2016-12-14T00:00:54.945Z,3.8
2016-12-14T00:01:13.577Z,3.8
2016-12-14T00:01:32.223Z,3.8
2016-12-14T00:01:50.844Z,3.8
2016-12-14T00:02:09.472Z,3.8
2016-12-14T00:02:28.094Z,3.8
2016-12-14T00:02:46.717Z,3.8
2016-12-14T00:03:05.340Z,3.8
2016-12-14T00:03:23.983Z,3.8
2016-12-14T00:03:42.623Z,3.8
2016-12-14T00:04:01.250Z,3.8
2016-12-14T00:04:19.878Z,3.8
2016-12-14T00:04:38.502Z,3.8
2016-12-14T00:04:57.120Z,3.8
2016-12-14T00:05:15.741Z,3.8
2016-12-14T00:05:34.371Z,3.8
2016-12-14T00:05:53.006Z,3.8
2016-12-14T00:06:11.630Z,3.8
2016-12-14T00:06:30.259Z,3.8
2016-12-14T00:06:48.905Z,3.8
2016-12-14T00:07:07.571Z,3.8
2016-12-14T00:07:26.195Z,3.8
2016-12-14T00:07:44.819Z,3.8
2016-12-14T00:08:03.446Z,3.8
2016-12-14T00:08:22.083Z,3.8
2016-12-14T00:08:40.717Z,3.8
2016-12-14T00:08:59.343Z,3.8
2016-12-14T00:09:17.970Z,3.8
2016-12-14T00:09:36.594Z,3.8
2016-12-14T00:09:55.217Z,3.8
2016-12-14T00:10:13.839Z,3.8
2016-12-14T00:10:32.498Z,3.8
2016-12-14T00:10:51.122Z,3.8
2016-12-14T00:11:09.755Z,3.8
2016-12-14T00:11:28.382Z,3.8
2016-12-14T00:11:47.012Z,3.8
2016-12-14T00:12:05.668Z,3.8
2016-12-14T00:12:24.299Z,3.8
2016-12-14T00:12:42.926Z,3.8
2016-12-14T00:13:01.545Z,3.8
2016-12-14T00:13:20.160Z,3.8
2016-12-14T00:13:38.790Z,3.8
2016-12-14T00:13:57.422Z,3.8
2016-12-14T00:14:16.049Z,3.8
2016-12-14T00:14:34.673Z,3.8
2016-12-14T00:14:53.294Z,3.8
2016-12-14T00:15:11.917Z,3.8
2016-12-14T00:15:30.547Z,3.8
2016-12-14T00:15:49.198Z,3.8
2016-12-14T00:16:07.825Z,3.8
2016-12-14T00:16:26.470Z,3.8
2016-12-14T00:16:45.092Z,3.8
2016-12-14T00:17:03.709Z,3.8
2016-12-14T00:17:22.343Z,3.8
2016-12-14T00:17:40.964Z,3.8
2016-12-14T00:17:59.587Z,3.8
2016-12-14T00:18:18.218Z,3.8
2016-12-14T00:18:36.838Z,3.8
2016-12-14T00:18:55.463Z,3.8
2016-12-14T00:19:14.122Z,3.8
2016-12-14T00:19:32.747Z,3.8
2016-12-14T00:19:51.378Z,3.8
2016-12-14T00:20:10.009Z,3.8
2016-12-14T00:20:28.629Z,3.8
2016-12-14T00:20:47.249Z,3.8
2016-12-14T00:21:05.870Z,3.8
2016-12-14T00:21:24.498Z,3.8
2016-12-14T00:21:43.120Z,3.8
2016-12-14T00:22:01.748Z,3.8
2016-12-14T00:22:20.371Z,3.8
2016-12-14T00:22:39.035Z,3.8
2016-12-14T00:22:57.657Z,3.8
2016-12-14T00:23:16.281Z,3.8
2016-12-14T00:23:34.903Z,3.8
2016-12-14T00:23:53.522Z,3.8
2016-12-14T00:24:12.146Z,3.8
2016-12-14T00:24:30.774Z,3.8
2016-12-14T00:24:49.400Z,3.8
2016-12-14T00:25:08.026Z,3.8
2016-12-14T00:25:26.654Z,3.8
2016-12-14T00:25:45.279Z,3.8
2016-12-14T00:26:03.937Z,3.8
2016-12-14T00:26:22.563Z,3.9
2016-12-14T00:26:41.190Z,3.9
2016-12-14T00:26:59.815Z,3.9
2016-12-14T00:27:18.434Z,3.9
2016-12-14T00:27:37.053Z,3.9
2016-12-14T00:27:55.698Z,3.9
2016-12-14T00:28:14.322Z,3.9
2016-12-14T00:28:32.952Z,3.9
2016-12-14T00:28:51.577Z,3.9
2016-12-14T00:29:10.199Z,3.9
2016-12-14T00:29:28.853Z,3.9
2016-12-14T00:29:47.500Z,3.9
2016-12-14T00:30:06.132Z,3.9
2016-12-14T00:30:24.758Z,3.9
2016-12-14T00:30:43.379Z,3.9
2016-12-14T00:31:02.000Z,3.9
2016-12-14T00:31:20.624Z,3.9
2016-12-14T00:31:39.277Z,3.9
2016-12-14T00:31:57.901Z,3.9
2016-12-14T00:32:16.523Z,3.9
2016-12-14T00:32:35.142Z,3.9
2016-12-14T00:32:53.767Z,3.9
2016-12-14T00:33:12.426Z,3.9
2016-12-14T00:33:31.050Z,3.9
2016-12-14T00:33:49.675Z,3.9
2016-12-14T00:34:08.300Z,3.9
2016-12-14T00:34:26.921Z,3.9
2016-12-14T00:34:45.552Z,3.9
2016-12-14T00:35:04.189Z,3.9
2016-12-14T00:35:22.818Z,3.9
2016-12-14T00:35:41.445Z,3.9
2016-12-14T00:36:00.067Z,3.9
2016-12-14T00:36:18.683Z,3.9
2016-12-14T00:36:37.316Z,3.9
2016-12-14T00:36:55.945Z,3.9
2016-12-14T00:37:14.580Z,3.9
2016-12-14T00:37:33.209Z,3.9
2016-12-14T00:37:51.828Z,3.9
2016-12-14T00:38:10.448Z,3.9
2016-12-14T00:38:29.110Z,3.9
2016-12-14T00:38:47.738Z,3.9
2016-12-14T00:39:06.362Z,3.9
2016-12-14T00:39:24.987Z,3.9
2016-12-14T00:39:43.607Z,3.9
2016-12-14T00:40:02.228Z,3.9
2016-12-14T00:40:20.851Z,3.9
2016-12-14T00:40:39.478Z,3.9
2016-12-14T00:40:58.110Z,3.9
2016-12-14T00:41:16.733Z,3.9
2016-12-14T00:41:35.355Z,3.9
2016-12-14T00:41:54.009Z,3.9
2016-12-14T00:42:12.640Z,3.9
2016-12-14T00:42:31.268Z,3.9
2016-12-14T00:42:49.894Z,3.9
2016-12-14T00:43:08.516Z,3.9
2016-12-14T00:43:27.143Z,3.9
2016-12-14T00:43:45.787Z,3.9
2016-12-14T00:44:04.411Z,3.9
2016-12-14T00:44:23.041Z,3.9
2016-12-14T00:44:41.664Z,3.9
2016-12-14T00:45:00.291Z,3.9
2016-12-14T00:45:18.942Z,3.9
2016-12-14T00:45:37.570Z,3.9
2016-12-14T00:45:56.193Z,3.9
2016-12-14T00:46:14.814Z,3.9
2016-12-14T00:46:33.445Z,3.9
2016-12-14T00:46:52.105Z,3.9
2016-12-14T00:47:10.730Z,3.9
2016-12-14T00:47:29.353Z,3.9
2016-12-14T00:47:47.976Z,3.9
2016-12-14T00:48:06.597Z,3.9
2016-12-14T00:48:25.215Z,3.9
2016-12-14T00:48:43.866Z,3.9
2016-12-14T00:49:02.510Z,3.9
2016-12-14T00:49:21.143Z,3.9
2016-12-14T00:49:39.760Z,3.9
2016-12-14T00:49:58.378Z,3.9
2016-12-14T00:50:17.007Z,3.9
2016-12-14T00:50:35.637Z,3.9
2016-12-14T00:50:54.268Z,3.9
2016-12-14T00:51:12.893Z,3.9
2016-12-14T00:51:31.510Z,3.9
2016-12-14T00:51:50.137Z,3.9
2016-12-14T00:52:08.780Z,3.9
2016-12-14T00:52:27.411Z,3.9
2016-12-14T00:52:46.040Z,3.9
2016-12-14T00:53:04.664Z,3.9
2016-12-14T00:53:23.289Z,3.9
2016-12-14T00:53:41.913Z,3.9
2016-12-14T00:54:00.536Z,3.9
2016-12-14T00:54:19.189Z,3.9
2016-12-14T00:54:37.814Z,3.9
2016-12-14T00:54:56.434Z,3.9
2016-12-14T00:55:15.063Z,3.9
2016-12-14T00:55:33.699Z,3.9
2016-12-14T00:55:52.360Z,3.9
2016-12-14T00:56:10.981Z,3.9
2016-12-14T00:56:29.603Z,3.9
2016-12-14T00:56:48.237Z,3.9
2016-12-14T00:57:06.861Z,3.9
2016-12-14T00:57:25.489Z,3.9
2016-12-14T00:57:44.115Z,3.9
2016-12-14T00:58:02.737Z,3.9
2016-12-14T00:58:21.362Z,3.9
2016-12-14T00:58:39.988Z,3.9
2016-12-14T00:58:58.618Z,3.9
2016-12-14T00:59:17.279Z,3.9
2016-12-14T00:59:35.929Z,3.9
2016-12-14T00:59:54.550Z,3.9
2016-12-14T01:00:13.182Z,3.9
2016-12-14T01:00:31.812Z,3.9
2016-12-14T01:00:50.441Z,3.9
2016-12-14T01:01:09.076Z,4
2016-12-14T01:01:27.698Z,4
2016-12-14T01:01:46.323Z,4
2016-12-14T01:02:04.955Z,4
2016-12-14T01:02:23.581Z,4
2016-12-14T01:02:42.204Z,4
2016-12-14T01:03:00.826Z,4
2016-12-14T01:03:19.449Z,4
2016-12-14T01:03:38.074Z,4
2016-12-14T01:03:56.699Z,4
2016-12-14T01:04:15.327Z,4
2016-12-14T01:04:33.978Z,4
2016-12-14T01:04:52.619Z,4
2016-12-14T01:05:11.251Z,4
2016-12-14T01:05:29.876Z,4
2016-12-14T01:05:48.499Z,4
2016-12-14T01:06:07.129Z,4
2016-12-14T01:06:25.750Z,4
2016-12-14T01:06:44.369Z,4
2016-12-14T01:07:03.000Z,4
2016-12-14T01:07:21.625Z,4
2016-12-14T01:07:40.262Z,4
2016-12-14T01:07:58.918Z,4
2016-12-14T01:08:17.537Z,4
2016-12-14T01:08:36.164Z,4
2016-12-14T01:08:54.784Z,4
2016-12-14T01:09:13.408Z,4
2016-12-14T01:09:32.035Z,4
2016-12-14T01:09:50.660Z,4
2016-12-14T01:10:09.307Z,4
2016-12-14T01:10:27.932Z,3.9
2016-12-14T01:10:46.560Z,3.9
2016-12-14T01:11:05.187Z,3.9
2016-12-14T01:11:23.871Z,3.9
2016-12-14T01:11:42.490Z,3.9
2016-12-14T01:12:01.113Z,3.9
2016-12-14T01:12:19.743Z,3.9
2016-12-14T01:12:38.371Z,3.9
2016-12-14T01:12:56.997Z,3.9
2016-12-14T01:13:15.616Z,3.9
2016-12-14T01:13:34.239Z,3.9
2016-12-14T01:13:52.868Z,3.9
2016-12-14T01:14:11.494Z,3.9
2016-12-14T01:14:30.122Z,3.9
2016-12-14T01:14:48.769Z,3.9
2016-12-14T01:15:07.390Z,3.9
2016-12-14T01:15:26.037Z,3.9
2016-12-14T01:15:44.659Z,3.9
2016-12-14T01:16:03.287Z,4
2016-12-14T01:16:21.912Z,3.9
2016-12-14T01:16:40.531Z,3.9
2016-12-14T01:16:59.160Z,3.9
2016-12-14T01:17:17.800Z,3.9
2016-12-14T01:17:36.427Z,3.9
2016-12-14T01:17:55.056Z,3.9
2016-12-14T01:18:13.696Z,3.9
2016-12-14T01:18:32.317Z,4
2016-12-14T01:18:50.945Z,4
2016-12-14T01:19:09.575Z,4
2016-12-14T01:19:28.202Z,4
2016-12-14T01:19:46.830Z,4
2016-12-14T01:20:05.456Z,4
2016-12-14T01:20:24.074Z,4
2016-12-14T01:20:42.717Z,4
2016-12-14T01:21:01.336Z,4
2016-12-14T01:21:19.964Z,4
2016-12-14T01:21:38.596Z,4
2016-12-14T01:21:57.255Z,4
2016-12-14T01:22:15.886Z,4
2016-12-14T01:22:34.510Z,4
2016-12-14T01:22:53.135Z,3.9
2016-12-14T01:23:11.762Z,4
2016-12-14T01:23:30.386Z,3.9
2016-12-14T01:23:49.017Z,3.9
2016-12-14T01:24:07.642Z,3.9
2016-12-14T01:24:26.267Z,3.9
2016-12-14T01:24:44.897Z,3.9
2016-12-14T01:25:03.519Z,3.9
2016-12-14T01:25:22.171Z,3.9
2016-12-14T01:25:40.800Z,3.9
2016-12-14T01:25:59.456Z,3.9
2016-12-14T01:26:18.082Z,3.9
2016-12-14T01:26:36.708Z,3.9
2016-12-14T01:26:55.326Z,3.9
2016-12-14T01:27:13.959Z,3.9
2016-12-14T01:27:32.586Z,3.9
2016-12-14T01:27:51.208Z,3.9
2016-12-14T01:28:09.831Z,3.9
2016-12-14T01:28:28.459Z,3.9
2016-12-14T01:28:47.085Z,3.9
2016-12-14T01:29:05.706Z,3.9
2016-12-14T01:29:24.332Z,3.9
2016-12-14T01:29:42.957Z,3.9
2016-12-14T01:30:01.585Z,3.9
2016-12-14T01:30:20.214Z,3.9
2016-12-14T01:30:38.865Z,3.9
2016-12-14T01:30:57.495Z,3.9
2016-12-14T01:31:16.128Z,3.9
2016-12-14T01:31:34.754Z,3.9
2016-12-14T01:31:53.401Z,3.9
2016-12-14T01:32:12.020Z,3.9
2016-12-14T01:32:30.658Z,3.9
2016-12-14T01:32:49.298Z,3.9
2016-12-14T01:33:07.921Z,3.9
2016-12-14T01:33:26.546Z,3.9
2016-12-14T01:33:45.175Z,3.9
2016-12-14T01:34:03.824Z,3.9
2016-12-14T01:34:22.450Z,3.9
2016-12-14T01:34:41.076Z,3.9
2016-12-14T01:34:59.701Z,3.9
2016-12-14T01:35:18.325Z,3.9
2016-12-14T01:35:36.959Z,3.9
2016-12-14T01:35:55.579Z,3.9
2016-12-14T01:36:14.208Z,3.9
2016-12-14T01:36:32.847Z,3.9
2016-12-14T01:36:51.477Z,3.9
2016-12-14T01:37:10.096Z,3.9
2016-12-14T01:37:28.744Z,3.9
2016-12-14T01:37:47.371Z,3.9
2016-12-14T01:38:05.998Z,3.9
2016-12-14T01:38:24.636Z,3.9
2016-12-14T01:38:43.254Z,3.9
2016-12-14T01:39:01.877Z,3.9
2016-12-14T01:39:20.505Z,3.9
2016-12-14T01:39:39.135Z,3.8
2016-12-14T01:39:57.756Z,3.8
2016-12-14T01:40:16.383Z,3.8
2016-12-14T01:40:35.009Z,3.8
2016-12-14T01:40:53.652Z,3.8
2016-12-14T01:41:12.283Z,3.8
2016-12-14T01:41:30.916Z,3.9
2016-12-14T01:41:49.561Z,3.9
2016-12-14T01:42:08.187Z,3.9
2016-12-14T01:42:26.804Z,3.9
2016-12-14T01:42:45.434Z,3.9
2016-12-14T01:43:04.060Z,3.9
2016-12-14T01:43:22.693Z,3.9
2016-12-14T01:43:41.317Z,3.9
2016-12-14T01:43:59.939Z,3.8
2016-12-14T01:44:18.578Z,3.8
2016-12-14T01:44:37.210Z,3.8
2016-12-14T01:44:55.835Z,3.8
2016-12-14T01:45:14.459Z,3.8
2016-12-14T01:45:33.076Z,3.9
2016-12-14T01:45:51.696Z,3.9
2016-12-14T01:46:10.329Z,3.9
2016-12-14T01:46:28.954Z,3.9
2016-12-14T01:46:47.581Z,3.9
2016-12-14T01:47:06.232Z,3.9
2016-12-14T01:47:24.852Z,3.9
2016-12-14T01:47:43.508Z,3.8
2016-12-14T01:48:02.151Z,3.8
2016-12-14T01:48:20.772Z,3.8
2016-12-14T01:48:39.396Z,3.8
2016-12-14T01:48:58.012Z,3.8
2016-12-14T01:49:16.632Z,3.8
2016-12-14T01:49:35.255Z,3.8
2016-12-14T01:49:53.883Z,3.8
2016-12-14T01:50:12.509Z,3.8
2016-12-14T01:50:31.139Z,3.8
2016-12-14T01:50:49.771Z,3.8
2016-12-14T01:51:08.390Z,3.8
2016-12-14T01:51:27.046Z,3.8
2016-12-14T01:51:45.673Z,3.8
2016-12-14T01:52:04.296Z,3.8
2016-12-14T01:52:22.928Z,3.8
2016-12-14T01:52:41.545Z,3.8
2016-12-14T01:53:00.172Z,3.9
2016-12-14T01:53:18.825Z,3.9
2016-12-14T01:53:37.446Z,3.9
2016-12-14T01:53:56.076Z,3.9
2016-12-14T01:54:14.707Z,3.9
2016-12-14T01:54:33.327Z,3.9
2016-12-14T01:54:51.957Z,3.9
2016-12-14T01:55:10.583Z,3.9
2016-12-14T01:55:29.206Z,3.9
2016-12-14T01:55:47.831Z,3.9
2016-12-14T01:56:06.452Z,3.9
2016-12-14T01:56:25.076Z,3.9
2016-12-14T01:56:43.728Z,3.9
2016-12-14T01:57:02.350Z,3.9
2016-12-14T01:57:20.977Z,3.9
2016-12-14T01:57:39.622Z,3.9
2016-12-14T01:57:58.239Z,3.9
2016-12-14T01:58:16.861Z,3.9
2016-12-14T01:58:35.484Z,3.9
2016-12-14T01:58:54.112Z,3.9
2016-12-14T01:59:12.732Z,3.9
2016-12-14T01:59:31.363Z,3.9
2016-12-14T01:59:49.991Z,3.9
2016-12-14T02:00:08.646Z,3.9
2016-12-14T02:00:27.270Z,3.9
2016-12-14T02:00:45.899Z,3.9
2016-12-14T02:01:04.521Z,3.9
2016-12-14T02:01:23.141Z,3.8
2016-12-14T02:01:41.768Z,3.8
2016-12-14T02:02:00.391Z,3.8
2016-12-14T02:02:19.018Z,3.8
2016-12-14T02:02:37.644Z,3.8
2016-12-14T02:02:56.268Z,3.8
2016-12-14T02:03:14.891Z,3.8
2016-12-14T02:03:33.540Z,3.8
2016-12-14T02:03:52.166Z,3.8
2016-12-14T02:04:10.788Z,3.8
2016-12-14T02:04:29.421Z,3.8
2016-12-14T02:04:48.043Z,3.8
2016-12-14T02:05:06.663Z,3.8
2016-12-14T02:05:25.288Z,3.8
2016-12-14T02:05:43.912Z,3.8
2016-12-14T02:06:02.541Z,3.8
2016-12-14T02:06:21.172Z,3.9
2016-12-14T02:06:39.792Z,3.9
2016-12-14T02:06:58.421Z,3.9
2016-12-14T02:07:17.080Z,3.9
2016-12-14T02:07:35.710Z,3.9
2016-12-14T02:07:54.334Z,3.9
2016-12-14T02:08:12.968Z,3.9
2016-12-14T02:08:31.593Z,3.9
2016-12-14T02:08:50.215Z,3.9
2016-12-14T02:09:08.845Z,3.9
2016-12-14T02:09:27.476Z,3.9
2016-12-14T02:09:46.098Z,3.9
2016-12-14T02:10:04.725Z,3.9
2016-12-14T02:10:23.360Z,3.8
2016-12-14T02:10:42.011Z,3.8
2016-12-14T02:11:00.642Z,3.8
2016-12-14T02:11:19.263Z,3.8
2016-12-14T02:11:37.880Z,3.8
2016-12-14T02:11:56.513Z,3.8
2016-12-14T02:12:15.141Z,3.8
2016-12-14T02:12:33.780Z,3.8
2016-12-14T02:12:52.411Z,3.8
2016-12-14T02:13:11.038Z,3.8
2016-12-14T02:13:29.664Z,3.8
2016-12-14T02:13:48.318Z,3.8
2016-12-14T02:14:06.974Z,3.8
2016-12-14T02:14:25.611Z,3.8
2016-12-14T02:14:44.234Z,3.8
2016-12-14T02:15:02.856Z,3.8
2016-12-14T02:15:21.485Z,3.8
2016-12-14T02:15:40.114Z,3.8
2016-12-14T02:15:58.756Z,3.8
2016-12-14T02:16:17.375Z,3.7
2016-12-14T02:16:35.994Z,3.7
2016-12-14T02:16:54.622Z,3.7
2016-12-14T02:17:13.246Z,3.7
2016-12-14T02:17:31.872Z,3.7
2016-12-14T02:17:50.494Z,3.7
2016-12-14T02:18:09.132Z,3.7
2016-12-14T02:18:27.759Z,3.7
2016-12-14T02:18:46.414Z,3.7
2016-12-14T02:19:05.037Z,3.7
2016-12-14T02:19:23.693Z,3.7
2016-12-14T02:19:42.322Z,3.7
2016-12-14T02:20:00.951Z,3.7
2016-12-14T02:20:19.573Z,3.7
2016-12-14T02:20:38.195Z,3.7
2016-12-14T02:20:56.822Z,3.7
2016-12-14T02:21:15.447Z,3.7
2016-12-14T02:21:34.079Z,3.8
2016-12-14T02:21:52.698Z,3.8
2016-12-14T02:22:11.316Z,3.8
2016-12-14T02:22:29.940Z,3.8
2016-12-14T02:22:48.596Z,3.8
2016-12-14T02:23:07.221Z,3.8
2016-12-14T02:23:25.846Z,3.8
2016-12-14T02:23:44.467Z,3.8
2016-12-14T02:24:03.099Z,3.8
2016-12-14T02:24:21.722Z,3.8
2016-12-14T02:24:40.353Z,3.8
2016-12-14T02:24:58.978Z,3.9
2016-12-14T02:25:17.605Z,3.9
2016-12-14T02:25:36.221Z,3.9
2016-12-14T02:25:54.838Z,3.9
2016-12-14T02:26:13.499Z,4
2016-12-14T02:26:32.121Z,4
2016-12-14T02:26:50.744Z,4
2016-12-14T02:27:09.365Z,4
2016-12-14T02:27:27.991Z,4
2016-12-14T02:27:46.614Z,4.1
2016-12-14T02:28:05.238Z,4.1
2016-12-14T02:28:23.864Z,4
2016-12-14T02:28:42.494Z,4.1
2016-12-14T02:29:01.117Z,4.1
2016-12-14T02:29:19.753Z,4.1
2016-12-14T02:29:38.401Z,4.1
2016-12-14T02:29:57.031Z,4.1
2016-12-14T02:30:15.651Z,4.1
2016-12-14T02:30:34.270Z,4.1
2016-12-14T02:30:52.890Z,4
2016-12-14T02:31:11.520Z,4
2016-12-14T02:31:30.158Z,4
2016-12-14T02:31:48.788Z,4
2016-12-14T02:32:07.408Z,4
2016-12-14T02:32:26.027Z,4
2016-12-14T02:32:44.650Z,4
2016-12-14T02:33:03.292Z,4
2016-12-14T02:33:21.972Z,3.9
2016-12-14T02:33:40.605Z,3.9
2016-12-14T02:33:59.228Z,3.9
2016-12-14T02:34:17.847Z,3.9
2016-12-14T02:34:36.480Z,3.9
2016-12-14T02:34:55.110Z,3.8
2016-12-14T02:35:13.736Z,3.8
2016-12-14T02:35:32.366Z,3.8
2016-12-14T02:35:50.988Z,3.8
2016-12-14T02:36:09.614Z,3.8
2016-12-14T02:36:28.234Z,3.8
2016-12-14T02:36:46.892Z,3.7
2016-12-14T02:37:05.514Z,3.7
2016-12-14T02:37:24.137Z,3.7
2016-12-14T02:37:42.761Z,3.7
2016-12-14T02:38:01.392Z,3.7
2016-12-14T02:38:20.024Z,3.6
2016-12-14T02:38:38.661Z,3.7
2016-12-14T02:38:57.293Z,3.6
2016-12-14T02:39:15.911Z,3.6
2016-12-14T02:39:34.532Z,3.6
2016-12-14T02:39:53.175Z,3.6
2016-12-14T02:40:11.826Z,3.6
2016-12-14T02:40:30.450Z,3.6
2016-12-14T02:40:49.074Z,3.6
2016-12-14T02:41:07.696Z,3.6
2016-12-14T02:41:26.329Z,3.6
2016-12-14T02:41:44.962Z,3.6
2016-12-14T02:42:03.621Z,3.6
2016-12-14T02:42:22.240Z,3.6
2016-12-14T02:42:40.861Z,3.6
2016-12-14T02:42:59.497Z,3.6
2016-12-14T02:43:18.120Z,3.6
2016-12-14T02:43:36.744Z,3.7
2016-12-14T02:43:55.369Z,3.7
2016-12-14T02:44:13.991Z,3.7
2016-12-14T02:44:32.613Z,3.7
2016-12-14T02:44:51.241Z,3.7
2016-12-14T02:45:09.875Z,3.7
2016-12-14T02:45:28.536Z,3.7
2016-12-14T02:45:47.165Z,3.7
2016-12-14T02:46:05.790Z,3.7
2016-12-14T02:46:24.411Z,3.7
2016-12-14T02:46:43.034Z,3.7
2016-12-14T02:47:01.666Z,3.7
2016-12-14T02:47:20.293Z,3.7
2016-12-14T02:47:38.923Z,3.7
2016-12-14T02:47:57.543Z,3.7
2016-12-14T02:48:16.163Z,3.7
2016-12-14T02:48:34.796Z,3.7
2016-12-14T02:48:53.455Z,3.7
2016-12-14T02:49:12.110Z,3.7
2016-12-14T02:49:30.734Z,3.7
2016-12-14T02:49:49.350Z,3.7
2016-12-14T02:50:07.977Z,3.7
2016-12-14T02:50:26.606Z,3.7
2016-12-14T02:50:45.233Z,3.7
2016-12-14T02:51:03.863Z,3.7
2016-12-14T02:51:22.487Z,3.7
2016-12-14T02:51:41.105Z,3.7
2016-12-14T02:51:59.738Z,3.7
2016-12-14T02:52:18.397Z,3.7
2016-12-14T02:52:37.029Z,3.7
2016-12-14T02:52:55.656Z,3.7
2016-12-14T02:53:14.276Z,3.7
2016-12-14T02:53:32.901Z,3.7
2016-12-14T02:53:51.532Z,3.7
2016-12-14T02:54:10.161Z,3.7
2016-12-14T02:54:28.790Z,3.7
2016-12-14T02:54:47.416Z,3.7
2016-12-14T02:55:06.045Z,3.7
2016-12-14T02:55:24.666Z,3.7
2016-12-14T02:55:43.347Z,3.7
2016-12-14T02:56:01.974Z,3.7
2016-12-14T02:56:20.608Z,3.7
2016-12-14T02:56:39.233Z,3.7
2016-12-14T02:56:57.859Z,3.7
2016-12-14T02:57:16.484Z,3.7
2016-12-14T02:57:35.109Z,3.7
2016-12-14T02:57:53.736Z,3.7
2016-12-14T02:58:12.358Z,3.7
2016-12-14T02:58:30.977Z,3.7
2016-12-14T02:58:49.605Z,3.7
2016-12-14T02:59:08.246Z,3.7
2016-12-14T02:59:26.879Z,3.7
2016-12-14T02:59:45.502Z,3.8
2016-12-14T03:00:04.121Z,3.8
2016-12-14T03:00:22.757Z,3.8
2016-12-14T03:00:41.381Z,3.8
2016-12-14T03:01:00.028Z,3.8
2016-12-14T03:01:18.657Z,3.8
2016-12-14T03:01:37.283Z,3.8
2016-12-14T03:01:55.904Z,3.8
2016-12-14T03:02:14.529Z,3.8
2016-12-14T03:02:33.166Z,3.8
2016-12-14T03:02:51.832Z,3.8
2016-12-14T03:03:10.453Z,3.8
2016-12-14T03:03:29.072Z,3.8
2016-12-14T03:03:47.710Z,3.8
2016-12-14T03:04:06.337Z,3.8
2016-12-14T03:04:24.965Z,3.8
2016-12-14T03:04:43.594Z,3.8
2016-12-14T03:05:02.215Z,3.8
2016-12-14T03:05:20.840Z,3.8
2016-12-14T03:05:39.463Z,3.8
2016-12-14T03:05:58.090Z,3.8
2016-12-14T03:06:16.750Z,3.8
2016-12-14T03:06:35.369Z,3.8
2016-12-14T03:06:53.994Z,3.8
2016-12-14T03:07:12.623Z,3.8
2016-12-14T03:07:31.249Z,3.8
2016-12-14T03:07:49.872Z,3.8
2016-12-14T03:08:08.515Z,3.8
2016-12-14T03:08:27.133Z,3.8
2016-12-14T03:08:45.758Z,3.8
2016-12-14T03:09:04.389Z,3.8
2016-12-14T03:09:23.008Z,3.9
2016-12-14T03:09:41.634Z,3.9
2016-12-14T03:10:00.255Z,3.9
2016-12-14T03:10:18.880Z,3.9
2016-12-14T03:10:37.505Z,3.9
2016-12-14T03:10:56.132Z,3.9
2016-12-14T03:11:14.756Z,3.9
2016-12-14T03:11:33.414Z,3.9
2016-12-14T03:11:52.036Z,3.9
2016-12-14T03:12:10.668Z,3.9
2016-12-14T03:12:29.291Z,3.9
2016-12-14T03:12:47.919Z,3.9
2016-12-14T03:13:06.546Z,3.9
2016-12-14T03:13:25.169Z,3.9
2016-12-14T03:13:43.791Z,3.9
2016-12-14T03:14:02.424Z,3.9
2016-12-14T03:14:21.048Z,3.9
2016-12-14T03:14:39.671Z,3.9
2016-12-14T03:14:58.327Z,3.9
2016-12-14T03:15:16.949Z,3.9
2016-12-14T03:15:35.573Z,3.9
2016-12-14T03:15:54.217Z,3.9
2016-12-14T03:16:12.842Z,3.8
2016-12-14T03:16:31.467Z,3.8
2016-12-14T03:16:50.104Z,3.8
2016-12-14T03:17:08.729Z,3.8
2016-12-14T03:17:27.355Z,3.8
2016-12-14T03:17:45.978Z,3.8
2016-12-14T03:18:04.604Z,3.8
2016-12-14T03:18:23.253Z,3.8
2016-12-14T03:18:41.878Z,3.8
2016-12-14T03:19:00.521Z,3.8
2016-12-14T03:19:19.150Z,3.8
2016-12-14T03:19:37.775Z,3.8
2016-12-14T03:19:56.403Z,3.9
2016-12-14T03:20:15.025Z,3.9
2016-12-14T03:20:33.646Z,3.9
2016-12-14T03:20:52.270Z,3.9
2016-12-14T03:21:10.893Z,3.9
2016-12-14T03:21:29.524Z,3.9
2016-12-14T03:21:48.168Z,3.9
2016-12-14T03:22:06.804Z,3.9
2016-12-14T03:22:25.425Z,3.9
2016-12-14T03:22:44.045Z,3.9
2016-12-14T03:23:02.669Z,3.9
2016-12-14T03:23:21.299Z,3.9
2016-12-14T03:23:39.924Z,3.9
2016-12-14T03:23:58.546Z,3.9
2016-12-14T03:24:17.172Z,4
2016-12-14T03:24:35.794Z,4
2016-12-14T03:24:54.426Z,4
2016-12-14T03:25:13.068Z,4
2016-12-14T03:25:31.723Z,4
2016-12-14T03:25:50.346Z,4
2016-12-14T03:26:08.964Z,4
2016-12-14T03:26:27.589Z,4
2016-12-14T03:26:46.214Z,4
2016-12-14T03:27:04.837Z,4
2016-12-14T03:27:23.500Z,4
2016-12-14T03:27:42.124Z,4
2016-12-14T03:28:00.746Z,4
2016-12-14T03:28:19.369Z,4
2016-12-14T03:28:37.996Z,4
2016-12-14T03:28:56.646Z,4
2016-12-14T03:29:15.266Z,4
2016-12-14T03:29:33.893Z,4
2016-12-14T03:29:52.520Z,4
2016-12-14T03:30:11.146Z,4
2016-12-14T03:30:29.773Z,4
2016-12-14T03:30:48.413Z,4
2016-12-14T03:31:07.040Z,4
2016-12-14T03:31:25.660Z,4
2016-12-14T03:31:44.288Z,4
2016-12-14T03:32:02.912Z,4
2016-12-14T03:32:21.536Z,4
2016-12-14T03:32:40.182Z,3.9
2016-12-14T03:32:58.805Z,3.9
2016-12-14T03:33:17.427Z,3.9
2016-12-14T03:33:36.060Z,3.9
2016-12-14T03:33:54.688Z,3.9
2016-12-14T03:34:13.362Z,3.9
2016-12-14T03:34:31.979Z,3.8
2016-12-14T03:34:50.603Z,3.8
2016-12-14T03:35:09.237Z,3.8
2016-12-14T03:35:27.861Z,3.8
2016-12-14T03:35:46.487Z,3.7
2016-12-14T03:36:05.116Z,3.7
2016-12-14T03:36:23.737Z,3.7
2016-12-14T03:36:42.359Z,3.7
2016-12-14T03:37:00.986Z,3.7
2016-12-14T03:37:19.643Z,3.6
2016-12-14T03:37:38.299Z,3.6
2016-12-14T03:37:56.941Z,3.6
2016-12-14T03:38:15.565Z,3.6
2016-12-14T03:38:34.185Z,3.6
2016-12-14T03:38:52.811Z,3.6
2016-12-14T03:39:11.440Z,3.6
2016-12-14T03:39:30.062Z,3.6
2016-12-14T03:39:48.693Z,3.6
2016-12-14T03:40:07.316Z,3.5
2016-12-14T03:40:25.947Z,3.5
2016-12-14T03:40:44.573Z,3.5
2016-12-14T03:41:03.225Z,3.5
2016-12-14T03:41:21.847Z,3.5
2016-12-14T03:41:40.477Z,3.5
2016-12-14T03:41:59.104Z,3.5
2016-12-14T03:42:17.727Z,3.4
2016-12-14T03:42:36.354Z,3.4
2016-12-14T03:42:54.975Z,3.4
2016-12-14T03:43:13.610Z,3.4
2016-12-14T03:43:32.232Z,3.4
2016-12-14T03:43:50.867Z,3.4
2016-12-14T03:44:09.505Z,3.4
2016-12-14T03:44:28.155Z,3.4
2016-12-14T03:44:46.778Z,3.4
2016-12-14T03:45:05.407Z,3.3
2016-12-14T03:45:24.038Z,3.3
2016-12-14T03:45:42.668Z,3.3
2016-12-14T03:46:01.291Z,3.3
2016-12-14T03:46:19.913Z,3.4
2016-12-14T03:46:38.532Z,3.4
2016-12-14T03:46:57.164Z,3.4
2016-12-14T03:47:15.798Z,3.4
2016-12-14T03:47:34.421Z,3.4
2016-12-14T03:47:53.063Z,3.5
2016-12-14T03:48:11.684Z,3.5
2016-12-14T03:48:30.327Z,3.5
2016-12-14T03:48:48.950Z,3.5
2016-12-14T03:49:07.576Z,3.5
2016-12-14T03:49:26.217Z,3.6
2016-12-14T03:49:44.845Z,3.6
2016-12-14T03:50:03.461Z,3.6
2016-12-14T03:50:22.084Z,3.6
2016-12-14T03:50:40.709Z,3.6
2016-12-14T03:50:59.336Z,3.6
2016-12-14T03:51:17.969Z,3.6
2016-12-14T03:51:36.628Z,3.7
2016-12-14T03:51:55.249Z,3.7
2016-12-14T03:52:13.871Z,3.7
2016-12-14T03:52:32.496Z,3.7
2016-12-14T03:52:51.127Z,3.7
2016-12-14T03:53:09.759Z,3.7
2016-12-14T03:53:28.385Z,3.7
2016-12-14T03:53:47.010Z,3.7
2016-12-14T03:54:05.640Z,3.7
2016-12-14T03:54:24.268Z,3.7
2016-12-14T03:54:42.896Z,3.7
2016-12-14T03:55:01.547Z,3.7
2016-12-14T03:55:20.169Z,3.7
2016-12-14T03:55:38.786Z,3.7
2016-12-14T03:55:57.426Z,3.7
2016-12-14T03:56:16.056Z,3.7
2016-12-14T03:56:34.683Z,3.7
2016-12-14T03:56:53.329Z,3.7
2016-12-14T03:57:11.950Z,3.8
2016-12-14T03:57:30.572Z,3.8
2016-12-14T03:57:49.197Z,3.8
2016-12-14T03:58:07.824Z,3.8
2016-12-14T03:58:26.448Z,3.8
2016-12-14T03:58:45.102Z,3.8
2016-12-14T03:59:03.734Z,3.8
2016-12-14T03:59:22.359Z,3.8
2016-12-14T03:59:40.981Z,3.8
2016-12-14T03:59:59.605Z,3.9
2016-12-14T04:00:18.264Z,3.9
2016-12-14T04:00:36.891Z,3.9
2016-12-14T04:00:55.518Z,3.9
2016-12-14T04:01:14.143Z,3.9
2016-12-14T04:01:32.773Z,3.9
2016-12-14T04:01:51.435Z,3.9
2016-12-14T04:02:10.064Z,3.9
2016-12-14T04:02:28.682Z,3.9
2016-12-14T04:02:47.303Z,3.9
2016-12-14T04:03:05.929Z,3.9
2016-12-14T04:03:24.562Z,3.9
2016-12-14T04:03:43.217Z,3.9
2016-12-14T04:04:01.842Z,3.9
2016-12-14T04:04:20.482Z,3.8
2016-12-14T04:04:39.125Z,3.8
2016-12-14T04:04:57.748Z,3.8
2016-12-14T04:05:16.379Z,3.8
2016-12-14T04:05:35.011Z,3.8
2016-12-14T04:05:53.635Z,3.8
2016-12-14T04:06:12.257Z,3.7
2016-12-14T04:06:30.887Z,3.7
2016-12-14T04:06:49.510Z,3.7
2016-12-14T04:07:08.163Z,3.7
2016-12-14T04:07:26.785Z,3.6
2016-12-14T04:07:45.403Z,3.6
2016-12-14T04:08:04.030Z,3.6
2016-12-14T04:08:22.658Z,3.6
2016-12-14T04:08:41.285Z,3.5
2016-12-14T04:08:59.911Z,3.5
2016-12-14T04:09:18.537Z,3.5
2016-12-14T04:09:37.177Z,3.5
2016-12-14T04:09:55.804Z,3.4
2016-12-14T04:10:14.430Z,3.4
2016-12-14T04:10:33.085Z,3.4
2016-12-14T04:10:51.710Z,3.4
2016-12-14T04:11:10.337Z,3.4
2016-12-14T04:11:28.965Z,3.4
2016-12-14T04:11:47.589Z,3.4
2016-12-14T04:12:06.217Z,3.4
2016-12-14T04:12:24.839Z,3.4
2016-12-14T04:12:43.462Z,3.3
2016-12-14T04:13:02.088Z,3.3
2016-12-14T04:13:20.719Z,3.3
2016-12-14T04:13:39.343Z,3.3
2016-12-14T04:13:57.994Z,3.3
2016-12-14T04:14:16.627Z,3.3
2016-12-14T04:14:35.244Z,3.3
2016-12-14T04:14:53.924Z,3.3
2016-12-14T04:15:12.550Z,3.2
2016-12-14T04:15:31.177Z,3.2
2016-12-14T04:15:49.804Z,3.2
2016-12-14T04:16:08.427Z,3.2
2016-12-14T04:16:27.048Z,3.2
2016-12-14T04:16:45.671Z,3.2
2016-12-14T04:17:04.297Z,3.2
2016-12-14T04:17:22.942Z,3.2
2016-12-14T04:17:41.567Z,3.2
2016-12-14T04:18:00.188Z,3.2
2016-12-14T04:18:18.815Z,3.2
2016-12-14T04:18:37.436Z,3.2